createdAt,value
2019-03-31T00:00:38.593Z,9.40
2019-03-31T00:03:06.457Z,10.33
2019-03-31T00:05:37.147Z,11.40
2019-03-31T00:08:02.038Z,11.47
2019-03-31T00:10:29.821Z,10.40
2019-03-31T00:12:57.625Z,8.67
2019-03-31T00:15:25.405Z,12.47
2019-03-31T00:17:53.198Z,11.37
2019-03-31T00:20:20.995Z,10.07
2019-03-31T00:22:48.810Z,12.83
2019-03-31T00:25:16.605Z,11.60
2019-03-31T00:27:44.408Z,9.37
2019-03-31T00:30:12.366Z,8.27
2019-03-31T00:32:40.174Z,10.50
2019-03-31T00:35:07.957Z,8.40
2019-03-31T00:37:35.758Z,12.10
2019-03-31T00:40:03.726Z,10.20
2019-03-31T00:42:31.529Z,7.30
2019-03-31T00:44:59.322Z,6.40
2019-03-31T00:47:27.128Z,9.60
2019-03-31T00:49:54.910Z,6.23
2019-03-31T00:52:22.743Z,7.80
2019-03-31T00:54:50.710Z,9.30
2019-03-31T00:57:18.602Z,6.70
2019-03-31T00:59:46.905Z,10.60
2019-03-31T01:02:16.001Z,10.83
2019-03-31T01:04:43.897Z,13.30
2019-03-31T01:07:11.747Z,9.47
2019-03-31T01:09:39.809Z,9.80
2019-03-31T01:12:07.661Z,9.30
2019-03-31T01:14:36.166Z,8.07
2019-03-31T01:17:04.625Z,11.73
2019-03-31T01:19:32.571Z,9.00
2019-03-31T01:22:00.598Z,9.33
2019-03-31T01:24:28.533Z,10.70
2019-03-31T01:26:56.340Z,11.63
2019-03-31T01:29:24.138Z,12.47
2019-03-31T01:31:51.930Z,13.20
2019-03-31T01:34:19.744Z,11.40
2019-03-31T01:36:47.522Z,16.80
2019-03-31T01:39:15.333Z,24.90
2019-03-31T01:41:46.101Z,12.07
2019-03-31T01:44:14.430Z,12.80
2019-03-31T01:46:42.802Z,10.17
2019-03-31T01:49:10.778Z,12.20
2019-03-31T01:51:38.684Z,11.38
2019-03-31T01:54:06.488Z,8.97
2019-03-31T01:56:34.276Z,13.23
2019-03-31T01:59:02.089Z,10.03
2019-03-31T02:01:29.868Z,15.40
2019-03-31T02:03:57.661Z,10.23
2019-03-31T02:06:25.437Z,10.03
2019-03-31T02:08:53.242Z,10.10
2019-03-31T02:11:21.035Z,8.77
2019-03-31T02:13:48.826Z,10.73
2019-03-31T02:16:16.643Z,11.43
2019-03-31T02:18:44.669Z,11.83
2019-03-31T02:21:12.724Z,11.63
2019-03-31T02:23:40.907Z,12.00
2019-03-31T02:26:08.770Z,10.63
2019-03-31T02:28:36.612Z,13.77
2019-03-31T02:31:04.590Z,11.53
2019-03-31T02:33:32.650Z,11.37
2019-03-31T02:36:00.551Z,14.27
2019-03-31T02:38:28.396Z,14.10
2019-03-31T02:40:56.208Z,10.30
2019-03-31T02:43:24.342Z,16.87
2019-03-31T02:45:52.172Z,13.67
2019-03-31T02:48:19.995Z,10.87
2019-03-31T02:50:49.183Z,10.23
2019-03-31T02:53:17.949Z,10.57
2019-03-31T02:55:46.570Z,11.33
2019-03-31T02:58:17.425Z,11.25
2019-03-31T03:00:47.952Z,10.60
2019-03-31T03:03:15.974Z,10.65
2019-03-31T03:05:44.180Z,9.55
2019-03-31T03:08:12.702Z,10.00
2019-03-31T03:10:40.577Z,9.60
2019-03-31T03:13:08.862Z,9.73
2019-03-31T03:15:43.171Z,10.32
2019-03-31T03:18:11.063Z,11.93
2019-03-31T03:20:38.947Z,11.40
2019-03-31T03:23:06.758Z,10.00
2019-03-31T03:25:34.549Z,11.47
2019-03-31T03:28:02.580Z,10.73
2019-03-31T03:30:30.549Z,13.17
2019-03-31T03:33:14.632Z,14.33
2019-03-31T03:35:26.166Z,12.20
2019-03-31T03:37:54.083Z,15.03
2019-03-31T03:40:21.906Z,13.93
2019-03-31T03:42:49.716Z,16.67
2019-03-31T03:45:17.589Z,15.67
2019-03-31T03:47:45.474Z,14.30
2019-03-31T03:50:13.408Z,16.23
2019-03-31T03:52:41.287Z,11.73
2019-03-31T03:55:09.213Z,11.77
2019-03-31T03:57:37.134Z,14.07
2019-03-31T04:00:05.468Z,12.65
2019-03-31T04:02:34.055Z,9.50
2019-03-31T04:05:02.157Z,12.33
2019-03-31T04:07:30.046Z,10.60
2019-03-31T04:09:59.016Z,13.17
2019-03-31T04:12:26.871Z,11.67
2019-03-31T04:14:54.774Z,12.10
2019-03-31T04:17:22.579Z,12.95
2019-03-31T04:19:50.426Z,16.53
2019-03-31T04:22:18.353Z,13.03
2019-03-31T04:24:46.208Z,14.07
2019-03-31T04:27:18.552Z,11.68
2019-03-31T04:29:42.046Z,12.93
2019-03-31T04:32:09.911Z,11.57
2019-03-31T04:34:37.895Z,9.20
2019-03-31T04:37:05.748Z,11.33
2019-03-31T04:39:33.601Z,13.63
2019-03-31T04:42:01.450Z,9.80
2019-03-31T04:44:29.274Z,11.23
2019-03-31T04:46:57.096Z,9.97
2019-03-31T04:49:24.944Z,11.37
2019-03-31T04:51:52.726Z,14.20
2019-03-31T04:54:20.550Z,9.10
2019-03-31T04:56:48.370Z,9.80
2019-03-31T04:59:16.212Z,9.57
2019-03-31T05:01:44.026Z,7.97
2019-03-31T05:04:11.844Z,9.90
2019-03-31T05:06:40.851Z,11.13
2019-03-31T05:09:08.595Z,9.63
2019-03-31T05:11:36.487Z,11.47
2019-03-31T05:14:04.285Z,8.37
2019-03-31T05:16:32.290Z,10.20
2019-03-31T05:19:00.102Z,9.57
2019-03-31T05:21:27.884Z,10.90
2019-03-31T05:23:55.684Z,14.73
2019-03-31T05:26:23.558Z,17.43
2019-03-31T05:28:52.170Z,9.90
2019-03-31T05:31:19.987Z,12.13
2019-03-31T05:33:48.198Z,13.10
2019-03-31T05:36:15.983Z,15.40
2019-03-31T05:38:43.793Z,10.10
2019-03-31T05:41:11.584Z,13.57
2019-03-31T05:43:39.378Z,10.00
2019-03-31T05:46:07.158Z,10.40
2019-03-31T05:48:34.955Z,10.20
2019-03-31T05:51:02.743Z,17.63
2019-03-31T05:53:30.542Z,13.50
2019-03-31T05:55:58.347Z,12.97
2019-03-31T05:58:26.139Z,10.97
2019-03-31T06:00:53.942Z,10.50
2019-03-31T06:03:21.721Z,8.90
2019-03-31T06:05:49.527Z,11.00
2019-03-31T06:08:17.357Z,12.80
2019-03-31T06:10:45.166Z,12.23
2019-03-31T06:13:12.954Z,11.73
2019-03-31T06:15:40.798Z,9.60
2019-03-31T06:18:08.679Z,10.10
2019-03-31T06:20:36.470Z,14.50
2019-03-31T06:23:04.312Z,13.23
2019-03-31T06:25:32.118Z,12.60
2019-03-31T06:28:00.490Z,12.60
2019-03-31T06:30:28.287Z,13.57
2019-03-31T06:32:56.070Z,13.00
2019-03-31T06:35:23.874Z,13.10
2019-03-31T06:37:51.686Z,17.80
2019-03-31T06:40:19.505Z,13.20
2019-03-31T06:42:47.410Z,15.10
2019-03-31T06:45:15.209Z,17.07
2019-03-31T06:47:42.986Z,17.00
2019-03-31T06:50:10.802Z,14.73
2019-03-31T06:52:38.582Z,13.53
2019-03-31T06:55:06.645Z,18.60
2019-03-31T06:57:34.434Z,15.07
2019-03-31T07:00:02.261Z,18.67
2019-03-31T07:02:30.069Z,15.97
2019-03-31T07:05:01.307Z,15.65
2019-03-31T07:07:25.674Z,16.65
2019-03-31T07:09:53.566Z,19.30
2019-03-31T07:15:02.733Z,17.10
2019-03-31T07:17:30.804Z,17.97
2019-03-31T07:19:58.634Z,17.27
2019-03-31T07:22:26.445Z,17.83
2019-03-31T07:24:54.251Z,19.73
2019-03-31T07:27:22.026Z,19.73
2019-03-31T07:29:49.834Z,21.67
2019-03-31T07:32:17.626Z,19.00
2019-03-31T07:34:45.435Z,19.00
2019-03-31T07:37:13.218Z,19.60
2019-03-31T07:39:41.502Z,18.77
2019-03-31T07:42:09.218Z,19.80
2019-03-31T07:44:36.866Z,18.12
2019-03-31T07:47:04.642Z,17.87
2019-03-31T07:49:32.494Z,18.47
2019-03-31T07:52:00.381Z,16.00
2019-03-31T07:54:28.105Z,16.50
2019-03-31T07:56:55.906Z,16.27
2019-03-31T07:59:23.710Z,16.43
2019-03-31T08:01:51.486Z,16.30
2019-03-31T08:04:19.262Z,19.07
2019-03-31T08:06:47.062Z,19.20
2019-03-31T08:09:14.854Z,15.40
2019-03-31T08:11:42.658Z,13.87
2019-03-31T08:14:10.463Z,16.42
2019-03-31T08:16:38.282Z,20.32
2019-03-31T08:19:06.066Z,22.03
2019-03-31T08:21:33.906Z,14.57
2019-03-31T08:24:01.691Z,18.07
2019-03-31T08:26:29.496Z,15.73
2019-03-31T08:28:58.658Z,17.73
2019-03-31T08:31:25.158Z,17.57
2019-03-31T08:33:52.938Z,19.07
2019-03-31T08:36:20.750Z,18.30
2019-03-31T08:38:48.543Z,16.23
2019-03-31T08:41:16.353Z,18.23
2019-03-31T08:43:44.175Z,17.20
2019-03-31T08:46:11.970Z,15.53
2019-03-31T08:48:39.745Z,18.93
2019-03-31T08:51:07.561Z,20.57
2019-03-31T08:53:35.417Z,18.87
2019-03-31T08:56:03.251Z,18.45
2019-03-31T08:58:31.133Z,19.80
2019-03-31T09:01:01.806Z,17.20
2019-03-31T09:03:29.634Z,20.30
2019-03-31T09:06:01.972Z,19.90
2019-03-31T09:08:25.262Z,19.23
2019-03-31T09:10:53.078Z,20.33
2019-03-31T09:13:20.854Z,25.73
2019-03-31T09:15:48.674Z,21.90
2019-03-31T09:18:16.451Z,19.43
2019-03-31T09:20:44.229Z,23.07
2019-03-31T09:23:12.034Z,17.60
2019-03-31T09:25:39.814Z,23.07
2019-03-31T09:28:07.623Z,16.33
2019-03-31T09:30:35.403Z,19.20
2019-03-31T09:33:03.326Z,21.10
2019-03-31T09:35:31.107Z,17.13
2019-03-31T09:37:58.916Z,24.70
2019-03-31T09:40:26.718Z,18.17
2019-03-31T09:42:54.605Z,18.53
2019-03-31T09:45:22.534Z,17.60
2019-03-31T09:47:50.350Z,19.00
2019-03-31T09:50:18.166Z,18.87
2019-03-31T09:52:45.967Z,24.83
2019-03-31T09:55:13.753Z,21.93
2019-03-31T09:57:41.550Z,16.63
2019-03-31T10:00:10.122Z,23.40
2019-03-31T10:02:38.457Z,19.40
2019-03-31T10:05:06.374Z,20.47
2019-03-31T10:07:34.210Z,20.10
2019-03-31T10:10:02.004Z,19.70
2019-03-31T10:12:29.906Z,19.37
2019-03-31T10:14:57.694Z,20.60
2019-03-31T10:17:25.509Z,22.60
2019-03-31T10:19:53.303Z,19.87
2019-03-31T10:22:21.098Z,21.57
2019-03-31T10:24:48.894Z,23.17
2019-03-31T10:27:16.703Z,24.77
2019-03-31T10:29:44.618Z,21.20
2019-03-31T10:32:12.406Z,19.67
2019-03-31T10:34:40.206Z,20.63
2019-03-31T10:37:08.010Z,18.20
2019-03-31T10:39:35.854Z,19.70
2019-03-31T10:42:03.673Z,23.77
2019-03-31T10:44:31.477Z,28.07
2019-03-31T10:46:59.686Z,21.83
2019-03-31T10:49:27.477Z,20.47
2019-03-31T10:51:55.598Z,19.63
2019-03-31T10:54:23.386Z,22.37
2019-03-31T10:56:51.182Z,24.20
2019-03-31T10:59:19.037Z,20.83
2019-03-31T11:01:46.918Z,22.82
2019-03-31T11:04:14.846Z,19.30
2019-03-31T11:06:42.653Z,20.80
2019-03-31T11:09:10.466Z,18.17
2019-03-31T11:11:38.268Z,22.97
2019-03-31T11:14:06.162Z,21.67
2019-03-31T11:16:33.969Z,19.83
2019-03-31T11:19:01.778Z,22.50
2019-03-31T11:21:34.267Z,20.00
2019-03-31T11:24:02.088Z,18.27
2019-03-31T11:26:29.881Z,19.43
2019-03-31T11:28:57.701Z,17.17
2019-03-31T11:31:25.501Z,13.05
2019-03-31T11:33:53.310Z,11.40
2019-03-31T11:36:21.109Z,11.33
2019-03-31T11:38:48.994Z,10.70
2019-03-31T11:41:16.871Z,8.00
2019-03-31T11:43:44.678Z,8.30
2019-03-31T11:46:12.469Z,10.40
2019-03-31T11:48:40.278Z,5.77
2019-03-31T11:51:08.085Z,10.40
2019-03-31T11:53:35.890Z,8.50
2019-03-31T11:56:03.682Z,6.60
2019-03-31T11:58:32.399Z,8.80
2019-03-31T12:00:59.277Z,10.70
2019-03-31T12:03:30.624Z,10.03
2019-03-31T12:05:54.969Z,10.00
2019-03-31T12:08:22.786Z,13.20
2019-03-31T12:10:50.561Z,12.53
2019-03-31T12:13:18.377Z,11.90
2019-03-31T12:15:46.193Z,8.97
2019-03-31T12:18:14.014Z,10.03
2019-03-31T12:20:41.801Z,10.03
2019-03-31T12:23:09.697Z,11.90
2019-03-31T12:25:37.487Z,11.90
2019-03-31T12:28:05.325Z,14.10
2019-03-31T12:30:33.099Z,12.03
2019-03-31T12:33:00.942Z,8.67
2019-03-31T12:35:28.733Z,7.42
2019-03-31T12:37:56.554Z,8.13
2019-03-31T12:40:29.929Z,6.70
2019-03-31T12:42:57.814Z,5.73
2019-03-31T12:45:25.614Z,5.80
2019-03-31T12:47:53.422Z,7.47
2019-03-31T12:50:21.207Z,6.17
2019-03-31T12:52:51.091Z,8.07
2019-03-31T12:55:16.835Z,5.63
2019-03-31T12:57:44.710Z,7.03
2019-03-31T13:00:12.512Z,7.47
2019-03-31T13:02:40.306Z,7.70
2019-03-31T13:05:08.103Z,7.37
2019-03-31T13:07:35.890Z,12.83
2019-03-31T13:10:03.762Z,8.70
2019-03-31T13:12:34.799Z,8.80
2019-03-31T13:14:59.366Z,6.80
2019-03-31T13:17:27.182Z,7.83
2019-03-31T13:19:54.994Z,5.60
2019-03-31T13:22:22.782Z,5.90
2019-03-31T13:24:50.610Z,8.70
2019-03-31T13:27:18.414Z,8.50
2019-03-31T13:29:46.240Z,7.10
2019-03-31T13:32:14.010Z,8.53
2019-03-31T13:34:41.814Z,6.90
2019-03-31T13:37:09.618Z,6.93
2019-03-31T13:39:37.434Z,6.62
2019-03-31T13:42:05.242Z,8.50
2019-03-31T13:44:33.042Z,8.80
2019-03-31T13:47:00.864Z,5.90
2019-03-31T13:49:28.630Z,7.43
2019-03-31T13:51:56.406Z,7.77
2019-03-31T13:54:24.205Z,7.63
2019-03-31T13:56:52.691Z,6.07
2019-03-31T13:59:19.814Z,6.10
2019-03-31T14:01:47.594Z,7.50
2019-03-31T14:04:15.401Z,10.97
2019-03-31T14:06:43.209Z,6.60
2019-03-31T14:09:10.999Z,7.40
2019-03-31T14:11:38.801Z,7.90
2019-03-31T14:14:06.635Z,4.87
2019-03-31T14:16:34.410Z,6.20
2019-03-31T14:19:02.222Z,4.43
2019-03-31T14:21:30.027Z,6.97
2019-03-31T14:23:57.841Z,7.37
2019-03-31T14:26:25.626Z,5.37
2019-03-31T14:28:53.445Z,6.50
2019-03-31T14:31:21.222Z,6.80
2019-03-31T14:33:49.017Z,7.60
2019-03-31T14:36:16.822Z,10.17
2019-03-31T14:38:44.634Z,7.70
2019-03-31T14:41:12.458Z,10.97
2019-03-31T14:43:40.254Z,13.43
2019-03-31T14:46:08.078Z,8.00
2019-03-31T14:48:35.883Z,8.97
2019-03-31T14:51:03.701Z,11.90
2019-03-31T14:53:31.490Z,11.30
2019-03-31T14:55:59.329Z,9.03
2019-03-31T14:58:27.111Z,10.80
2019-03-31T15:00:54.910Z,8.30
2019-03-31T15:03:22.722Z,7.60
2019-03-31T15:05:50.533Z,6.43
2019-03-31T15:08:18.343Z,7.67
2019-03-31T15:10:46.183Z,10.90
2019-03-31T15:13:13.982Z,6.83
2019-03-31T15:15:41.794Z,10.43
2019-03-31T15:18:09.601Z,6.00
2019-03-31T15:20:37.415Z,6.62
2019-03-31T15:23:05.210Z,11.50
2019-03-31T15:25:33.069Z,10.37
2019-03-31T15:28:01.071Z,7.00
2019-03-31T15:30:28.890Z,5.27
2019-03-31T15:32:56.698Z,4.90
2019-03-31T15:35:24.523Z,4.20
2019-03-31T15:37:52.386Z,4.23
2019-03-31T15:40:20.195Z,7.13
2019-03-31T15:42:47.980Z,5.30
2019-03-31T15:45:15.817Z,4.13
2019-03-31T15:47:43.646Z,5.40
2019-03-31T15:50:11.578Z,4.73
2019-03-31T15:52:40.200Z,5.37
2019-03-31T15:55:08.015Z,5.73
2019-03-31T15:57:35.851Z,10.50
2019-03-31T16:00:04.018Z,7.53
2019-03-31T16:02:31.806Z,6.17
2019-03-31T16:04:59.609Z,4.30
2019-03-31T16:07:27.438Z,4.70
2019-03-31T16:09:54.191Z,5.57
2019-03-31T16:12:20.951Z,5.47
2019-03-31T16:14:47.709Z,5.37
2019-03-31T16:17:14.493Z,4.43
2019-03-31T16:19:41.246Z,2.60
2019-03-31T16:22:08.022Z,2.90
2019-03-31T16:24:39.403Z,9.50
2019-03-31T16:27:06.154Z,3.43
2019-03-31T16:29:32.894Z,3.87
2019-03-31T16:31:59.688Z,4.67
2019-03-31T16:34:26.406Z,4.53
2019-03-31T16:36:53.275Z,4.30
2019-03-31T16:39:20.014Z,6.70
2019-03-31T16:41:46.778Z,4.87
2019-03-31T16:44:13.520Z,5.30
2019-03-31T16:46:40.327Z,11.30
2019-03-31T16:49:07.130Z,4.07
2019-03-31T16:51:33.890Z,4.30
2019-03-31T16:54:00.622Z,5.47
2019-03-31T16:56:27.406Z,5.80
2019-03-31T16:58:54.152Z,5.10
2019-03-31T17:01:20.894Z,5.37
2019-03-31T17:03:47.634Z,4.60
2019-03-31T17:06:14.394Z,5.43
2019-03-31T17:08:41.122Z,5.60
2019-03-31T17:11:07.875Z,4.20
2019-03-31T17:13:34.775Z,5.70
2019-03-31T17:16:01.526Z,4.57
2019-03-31T17:18:28.279Z,9.13
2019-03-31T17:20:55.046Z,4.58
2019-03-31T17:23:21.773Z,5.35
2019-03-31T17:25:48.888Z,3.80
2019-03-31T17:28:15.574Z,6.33
2019-03-31T17:30:42.321Z,4.00
2019-03-31T17:33:09.037Z,3.67
2019-03-31T17:35:35.801Z,4.60
2019-03-31T17:38:02.535Z,3.83
2019-03-31T17:40:29.286Z,3.70
2019-03-31T17:42:56.170Z,7.23
2019-03-31T17:45:22.950Z,4.50
2019-03-31T17:47:49.674Z,4.20
2019-03-31T17:50:16.481Z,3.83
2019-03-31T17:52:43.251Z,5.47
2019-03-31T17:55:09.990Z,7.60
2019-03-31T17:57:36.775Z,22.22
2019-03-31T18:00:04.844Z,36.37
2019-03-31T18:02:31.618Z,51.87
2019-03-31T18:04:58.358Z,43.07
2019-03-31T18:07:25.117Z,46.70
2019-03-31T18:09:51.850Z,46.20
2019-03-31T18:12:18.598Z,49.97
2019-03-31T18:14:45.322Z,48.53
2019-03-31T18:17:12.059Z,48.70
2019-03-31T18:19:38.796Z,46.53
2019-03-31T18:22:16.238Z,50.07
2019-03-31T18:24:32.361Z,54.17
2019-03-31T18:26:59.106Z,52.70
2019-03-31T18:29:25.846Z,56.23
2019-03-31T18:31:52.610Z,54.50
2019-03-31T18:34:19.334Z,59.20
2019-03-31T18:36:46.082Z,55.17
2019-03-31T18:39:12.822Z,51.13
2019-03-31T18:41:39.578Z,53.50
2019-03-31T18:44:06.316Z,55.30
2019-03-31T18:46:33.062Z,57.27
2019-03-31T18:48:59.803Z,55.07
2019-03-31T18:51:26.565Z,58.27
2019-03-31T18:53:59.175Z,61.23
2019-03-31T18:56:46.515Z,59.80
2019-03-31T18:59:24.673Z,59.00
2019-03-31T19:02:13.016Z,58.50
2019-03-31T19:04:56.739Z,61.10
2019-03-31T19:07:42.820Z,54.98
2019-03-31T19:10:24.811Z,60.50
2019-03-31T19:13:13.771Z,53.70
2019-03-31T19:15:54.411Z,56.57
2019-03-31T19:18:29.306Z,54.83
2019-03-31T19:21:10.904Z,51.40
2019-03-31T19:23:49.422Z,55.93
2019-03-31T19:26:48.385Z,53.93
2019-03-31T19:29:17.101Z,58.70
2019-03-31T19:31:48.530Z,54.00
2019-03-31T19:34:24.550Z,61.18
2019-03-31T19:36:56.979Z,52.33
2019-03-31T19:39:29.498Z,48.53
2019-03-31T19:42:05.323Z,50.37
2019-03-31T19:44:42.391Z,52.80
2019-03-31T19:47:21.539Z,54.40
2019-03-31T19:49:57.670Z,50.93
2019-03-31T19:52:48.838Z,49.73
2019-03-31T19:55:26.174Z,51.20
2019-03-31T19:57:58.683Z,52.73
2019-03-31T20:00:36.465Z,52.93
2019-03-31T20:03:09.115Z,57.43
2019-03-31T20:05:45.086Z,61.63
2019-03-31T20:08:31.446Z,47.57
2019-03-31T20:11:18.802Z,52.13
2019-03-31T20:13:55.477Z,47.17
2019-03-31T20:16:28.067Z,51.18
2019-03-31T20:19:14.427Z,49.50
2019-03-31T20:21:48.719Z,41.13
2019-03-31T20:24:26.266Z,46.17
2019-03-31T20:27:00.189Z,46.80
2019-03-31T20:29:34.097Z,46.60
2019-03-31T20:32:06.589Z,41.53
2019-03-31T20:34:46.338Z,41.97
2019-03-31T20:37:23.553Z,46.40
2019-03-31T20:40:07.043Z,36.30
2019-03-31T20:42:42.890Z,41.17
2019-03-31T20:45:09.651Z,35.97
2019-03-31T20:47:36.410Z,34.47
2019-03-31T20:50:04.038Z,35.07
2019-03-31T20:52:30.778Z,36.10
2019-03-31T20:54:57.504Z,44.10
2019-03-31T20:57:24.254Z,33.90
2019-03-31T20:59:51.092Z,33.57
2019-03-31T21:02:17.735Z,34.67
2019-03-31T21:04:44.474Z,32.17
2019-03-31T21:07:11.271Z,37.90
2019-03-31T21:09:44.938Z,29.57
2019-03-31T21:12:04.715Z,36.67
2019-03-31T21:14:31.454Z,32.43
2019-03-31T21:16:58.185Z,34.20
2019-03-31T21:19:24.937Z,33.17
2019-03-31T21:21:51.672Z,30.80
2019-03-31T21:24:18.426Z,34.00
2019-03-31T21:26:45.158Z,36.47
2019-03-31T21:29:11.909Z,30.93
2019-03-31T21:31:38.679Z,30.53
2019-03-31T21:34:05.430Z,29.70
2019-03-31T21:36:32.146Z,32.05
2019-03-31T21:38:58.899Z,34.47
2019-03-31T21:41:25.630Z,29.77
2019-03-31T21:43:52.382Z,29.10
2019-03-31T21:46:19.153Z,33.73
2019-03-31T21:48:45.898Z,29.65
2019-03-31T21:51:12.641Z,32.50
2019-03-31T21:53:39.394Z,27.23
2019-03-31T21:56:06.113Z,33.63
2019-03-31T21:58:32.906Z,30.47
2019-03-31T22:00:59.672Z,28.73
2019-03-31T22:03:26.426Z,30.97
2019-03-31T22:05:53.168Z,31.20
2019-03-31T22:08:19.922Z,36.73
2019-03-31T22:10:46.674Z,26.80
2019-03-31T22:13:13.413Z,26.73
2019-03-31T22:15:40.157Z,34.63
2019-03-31T22:18:06.890Z,31.47
2019-03-31T22:20:33.630Z,28.20
2019-03-31T22:23:00.362Z,23.83
2019-03-31T22:25:27.106Z,29.87
2019-03-31T22:27:53.826Z,30.23
2019-03-31T22:30:20.587Z,31.40
2019-03-31T22:32:47.323Z,34.47
2019-03-31T22:35:14.077Z,30.00
2019-03-31T22:37:40.807Z,30.90
2019-03-31T22:40:07.619Z,31.50
2019-03-31T22:42:34.355Z,29.30
2019-03-31T22:45:01.101Z,28.75
2019-03-31T22:47:27.830Z,31.33
2019-03-31T22:49:54.574Z,33.00
2019-03-31T22:52:21.306Z,26.43
2019-03-31T22:54:48.086Z,31.30
2019-03-31T22:57:14.818Z,30.90
2019-03-31T22:59:41.574Z,29.47
2019-03-31T23:02:08.330Z,27.50
2019-03-31T23:04:35.090Z,29.13
2019-03-31T23:07:01.817Z,27.10
2019-03-31T23:09:28.691Z,30.13
2019-03-31T23:11:55.414Z,32.63
2019-03-31T23:14:22.186Z,32.60
2019-03-31T23:16:48.913Z,31.33
2019-03-31T23:19:15.670Z,30.20
2019-03-31T23:21:42.413Z,29.87
2019-03-31T23:24:09.146Z,32.83
2019-03-31T23:26:35.874Z,31.13
2019-03-31T23:29:02.633Z,36.23
2019-03-31T23:31:29.354Z,34.23
2019-03-31T23:33:56.087Z,29.53
2019-03-31T23:36:22.849Z,32.85
2019-03-31T23:38:49.642Z,37.90
2019-03-31T23:41:16.420Z,32.50
2019-03-31T23:43:43.154Z,31.12
2019-03-31T23:46:09.904Z,28.13
2019-03-31T23:48:36.632Z,34.47
2019-03-31T23:51:03.378Z,34.27
2019-03-31T23:53:30.103Z,25.70
2019-03-31T23:55:56.858Z,26.70
2019-03-31T23:58:23.598Z,31.73
